createdAt,value
2019-05-05T00:00:40.334Z,2.05
2019-05-05T00:04:04.493Z,2.02
2019-05-05T00:07:25.256Z,1.94
2019-05-05T00:10:59.213Z,1.91
2019-05-05T00:14:19.944Z,1.84
2019-05-05T00:17:34.273Z,1.79
2019-05-05T00:20:47.967Z,1.77
2019-05-05T00:24:01.846Z,1.76
2019-05-05T00:27:15.757Z,1.71
2019-05-05T00:30:29.360Z,1.71
2019-05-05T00:33:44.905Z,1.66
2019-05-05T00:36:58.501Z,1.69
2019-05-05T00:40:14.255Z,1.60
2019-05-05T00:43:27.978Z,1.63
2019-05-05T00:47:06.180Z,1.61
2019-05-05T00:50:21.153Z,1.61
2019-05-05T00:53:34.654Z,1.63
2019-05-05T00:56:48.583Z,1.63
2019-05-05T01:00:06.819Z,1.63
2019-05-05T01:03:24.211Z,1.65
2019-05-05T01:06:37.796Z,1.64
2019-05-05T01:09:51.384Z,1.62
2019-05-05T01:13:05.296Z,1.58
2019-05-05T01:16:18.997Z,1.58
2019-05-05T01:19:34.856Z,1.57
2019-05-05T01:22:48.493Z,1.58
2019-05-05T01:26:02.187Z,1.54
2019-05-05T01:29:16.185Z,1.55
2019-05-05T01:32:35.165Z,1.56
2019-05-05T01:35:49.529Z,1.50
2019-05-05T01:42:52.334Z,1.32
2019-05-05T01:46:05.931Z,1.28
2019-05-05T01:49:19.829Z,1.20
2019-05-05T01:52:34.475Z,1.18
2019-05-05T01:55:48.563Z,1.17
2019-05-05T01:59:02.538Z,1.15
2019-05-05T02:02:16.122Z,1.08
2019-05-05T02:05:30.035Z,1.04
2019-05-05T02:08:45.474Z,1.09
2019-05-05T02:11:59.397Z,1.13
2019-05-05T02:15:14.915Z,1.12
2019-05-05T02:18:28.738Z,1.08
2019-05-05T02:21:42.430Z,1.13
2019-05-05T02:24:56.125Z,1.17
2019-05-05T02:28:09.818Z,1.15
2019-05-05T02:31:36.235Z,1.22
2019-05-05T02:34:56.291Z,1.30
2019-05-05T02:38:10.200Z,1.33
2019-05-05T02:41:25.570Z,1.40
2019-05-05T02:44:39.873Z,1.44
2019-05-05T02:48:14.904Z,1.50
2019-05-05T02:51:28.206Z,1.51
2019-05-05T02:54:44.211Z,1.51
2019-05-05T02:57:58.334Z,1.49
2019-05-05T03:01:34.133Z,1.47
2019-05-05T03:04:48.365Z,1.43
2019-05-05T03:08:04.695Z,1.36
2019-05-05T03:11:18.469Z,1.28
2019-05-05T03:14:35.074Z,1.25
2019-05-05T03:17:48.883Z,1.21
2019-05-05T03:21:07.215Z,1.14
2019-05-05T03:24:18.603Z,1.13
2019-05-05T03:27:34.139Z,1.05
2019-05-05T03:30:47.949Z,1.03
2019-05-05T03:34:01.446Z,0.97
2019-05-05T03:37:15.141Z,0.90
2019-05-05T03:40:30.716Z,0.92
2019-05-05T03:44:04.733Z,0.92
2019-05-05T03:47:19.300Z,0.80
2019-05-05T03:50:34.067Z,0.78
2019-05-05T03:53:48.261Z,0.77
2019-05-05T03:57:08.362Z,0.75
2019-05-05T04:00:55.557Z,0.74
2019-05-05T04:04:21.600Z,0.68
2019-05-05T04:07:35.195Z,0.68
2019-05-05T04:10:49.105Z,0.68
2019-05-05T04:14:03.672Z,0.69
2019-05-05T04:17:44.317Z,0.69
2019-05-05T04:20:58.030Z,0.60
2019-05-05T04:24:11.546Z,0.62
2019-05-05T04:27:25.091Z,0.65
2019-05-05T04:30:38.574Z,0.67
2019-05-05T04:33:53.819Z,0.74
2019-05-05T04:37:07.384Z,0.77
2019-05-05T04:40:21.085Z,0.85
2019-05-05T04:43:34.594Z,0.84
2019-05-05T04:46:51.190Z,0.84
2019-05-05T04:50:14.950Z,0.86
2019-05-05T04:53:51.702Z,0.88
2019-05-05T04:57:05.187Z,0.96
2019-05-05T05:00:18.920Z,1.00
2019-05-05T05:03:51.351Z,1.05
2019-05-05T05:07:04.856Z,1.08
2019-05-05T05:10:18.375Z,1.15
2019-05-05T05:16:35.686Z,1.26
2019-05-05T05:19:49.455Z,1.21
2019-05-05T05:23:03.746Z,1.25
2019-05-05T05:26:17.446Z,1.30
2019-05-05T05:29:31.260Z,1.37
2019-05-05T05:32:45.079Z,1.45
2019-05-05T05:35:58.573Z,1.53
2019-05-05T05:39:26.005Z,1.59
2019-05-05T05:42:39.478Z,1.68
2019-05-05T05:46:13.526Z,1.78
2019-05-05T05:49:31.213Z,1.84
2019-05-05T05:57:00.542Z,1.84
2019-05-05T06:00:14.772Z,1.95
2019-05-05T06:03:28.257Z,2.07
2019-05-05T06:06:43.762Z,2.24
2019-05-05T06:09:57.182Z,2.42
2019-05-05T06:13:10.760Z,2.57
2019-05-05T06:16:24.254Z,2.73
2019-05-05T06:19:37.745Z,2.91
2019-05-05T06:22:53.400Z,3.21
2019-05-05T06:26:07.342Z,3.50
2019-05-05T06:29:20.939Z,3.73
2019-05-05T06:32:34.441Z,3.98
2019-05-05T06:35:48.138Z,4.18
2019-05-05T06:39:04.564Z,4.45
2019-05-05T06:42:27.688Z,4.66
2019-05-05T06:45:46.454Z,4.78
2019-05-05T06:48:59.938Z,4.99
2019-05-05T06:52:14.324Z,5.11
2019-05-05T06:55:27.903Z,5.37
2019-05-05T06:58:41.395Z,5.57
2019-05-05T07:01:55.330Z,5.73
2019-05-05T07:05:09.347Z,5.95
2019-05-05T07:08:24.352Z,6.36
2019-05-05T07:11:38.044Z,7.29
2019-05-05T07:14:53.777Z,7.92
2019-05-05T07:18:07.585Z,7.64
2019-05-05T07:21:23.521Z,7.35
2019-05-05T07:24:37.451Z,7.20
2019-05-05T07:27:51.714Z,7.32
2019-05-05T07:31:05.650Z,7.40
2019-05-05T07:34:20.126Z,7.75
2019-05-05T07:37:34.508Z,7.84
2019-05-05T07:40:48.213Z,7.42
2019-05-05T07:44:01.851Z,7.72
2019-05-05T07:47:15.761Z,7.73
2019-05-05T07:50:32.423Z,7.87
2019-05-05T07:53:45.553Z,8.28
2019-05-05T07:56:59.581Z,8.86
2019-05-05T08:00:14.830Z,9.28
2019-05-05T08:03:28.733Z,9.49
2019-05-05T08:06:44.570Z,9.48
2019-05-05T08:09:58.187Z,9.41
2019-05-05T08:13:13.461Z,9.56
2019-05-05T08:16:50.799Z,9.39
2019-05-05T08:20:11.518Z,9.43
2019-05-05T08:23:45.807Z,9.18
2019-05-05T08:27:30.831Z,8.87
2019-05-05T08:31:06.757Z,8.77
2019-05-05T08:34:20.480Z,8.73
2019-05-05T08:37:34.443Z,8.89
2019-05-05T08:40:48.163Z,9.18
2019-05-05T08:44:03.679Z,9.58
2019-05-05T08:47:17.438Z,9.51
2019-05-05T08:50:30.908Z,9.33
2019-05-05T08:53:54.622Z,9.06
2019-05-05T08:57:08.631Z,9.03
2019-05-05T09:00:24.319Z,8.58
2019-05-05T09:03:37.932Z,8.67
2019-05-05T09:06:51.560Z,8.51
2019-05-05T09:10:05.361Z,8.71
2019-05-05T09:13:19.270Z,8.96
2019-05-05T09:16:33.501Z,9.45
2019-05-05T09:19:47.281Z,9.89
2019-05-05T09:23:00.913Z,10.15
2019-05-05T09:26:34.420Z,10.08
2019-05-05T09:29:48.333Z,10.03
2019-05-05T09:33:03.582Z,9.73
2019-05-05T09:36:17.678Z,9.98
2019-05-05T09:39:31.713Z,9.99
2019-05-05T09:42:45.285Z,10.04
2019-05-05T09:45:59.265Z,9.50
2019-05-05T09:49:14.079Z,9.08
2019-05-05T09:52:27.814Z,9.67
2019-05-05T09:55:41.501Z,10.27
2019-05-05T09:58:55.352Z,10.69
2019-05-05T10:02:09.446Z,11.42
2019-05-05T10:05:23.699Z,11.89
2019-05-05T10:08:37.380Z,11.74
2019-05-05T10:11:51.090Z,12.19
2019-05-05T10:15:07.438Z,12.46
2019-05-05T10:18:20.821Z,12.46
2019-05-05T10:21:34.543Z,12.20
2019-05-05T10:24:56.785Z,11.44
2019-05-05T10:28:08.688Z,10.97
2019-05-05T10:31:24.135Z,10.88
2019-05-05T10:34:38.010Z,11.24
2019-05-05T10:37:51.871Z,11.13
2019-05-05T10:41:05.458Z,11.41
2019-05-05T10:44:19.421Z,11.98
2019-05-05T10:47:33.502Z,12.50
2019-05-05T10:50:47.609Z,12.23
2019-05-05T10:54:01.284Z,11.52
2019-05-05T10:57:18.310Z,11.41
2019-05-05T11:00:44.114Z,11.46
2019-05-05T11:03:57.477Z,11.12
2019-05-05T11:07:11.519Z,11.59
2019-05-05T11:10:31.428Z,11.65
2019-05-05T11:13:45.661Z,11.04
2019-05-05T11:16:59.554Z,10.31
2019-05-05T11:20:14.441Z,10.27
2019-05-05T11:23:28.470Z,10.15
2019-05-05T11:26:42.132Z,10.00
2019-05-05T11:30:14.853Z,10.10
2019-05-05T11:33:46.417Z,10.27
2019-05-05T11:37:07.954Z,10.34
2019-05-05T11:40:31.216Z,10.25
2019-05-05T11:43:45.215Z,10.23
2019-05-05T11:46:58.709Z,10.19
2019-05-05T11:50:12.746Z,9.88
2019-05-05T11:53:26.337Z,9.74
2019-05-05T11:56:40.252Z,9.88
2019-05-05T11:59:54.079Z,9.98
2019-05-05T12:03:07.750Z,10.12
2019-05-05T12:06:21.445Z,9.97
2019-05-05T12:09:41.811Z,10.22
2019-05-05T12:16:35.041Z,11.14
2019-05-05T12:19:48.740Z,10.61
2019-05-05T12:23:04.636Z,10.54
2019-05-05T12:26:43.703Z,10.92
2019-05-05T12:30:00.915Z,11.35
2019-05-05T12:33:14.549Z,11.32
2019-05-05T12:36:28.295Z,10.98
2019-05-05T12:39:44.090Z,11.24
2019-05-05T12:42:57.705Z,11.24
2019-05-05T12:46:37.025Z,11.06
2019-05-05T12:49:50.782Z,11.14
2019-05-05T12:53:04.629Z,11.44
2019-05-05T12:56:18.389Z,12.07
2019-05-05T12:59:33.880Z,12.45
2019-05-05T13:02:47.934Z,12.78
2019-05-05T13:06:01.657Z,12.85
2019-05-05T13:09:16.141Z,12.76
2019-05-05T13:12:29.710Z,12.40
2019-05-05T13:15:44.310Z,12.47
2019-05-05T13:18:57.842Z,12.56
2019-05-05T13:22:36.317Z,12.27
2019-05-05T13:26:08.234Z,12.07
2019-05-05T13:29:21.841Z,11.78
2019-05-05T13:32:38.228Z,11.89
2019-05-05T13:35:53.678Z,12.48
2019-05-05T13:39:07.798Z,13.18
2019-05-05T13:42:21.744Z,13.07
2019-05-05T13:45:55.420Z,12.72
2019-05-05T13:49:27.452Z,12.37
2019-05-05T13:52:40.978Z,12.80
2019-05-05T13:56:08.572Z,13.86
2019-05-05T13:59:10.463Z,14.12
2019-05-05T14:02:24.545Z,13.65
2019-05-05T14:05:40.928Z,13.29
2019-05-05T14:08:54.459Z,13.24
2019-05-05T14:12:08.087Z,13.47
2019-05-05T14:15:23.479Z,13.63
2019-05-05T14:18:37.490Z,14.27
2019-05-05T14:21:51.043Z,13.95
2019-05-05T14:25:09.588Z,13.88
2019-05-05T14:28:23.554Z,13.64
2019-05-05T14:31:40.271Z,13.36
2019-05-05T14:35:11.104Z,12.87
2019-05-05T14:38:34.141Z,12.58
2019-05-05T14:41:48.471Z,12.07
2019-05-05T14:45:04.614Z,11.79
2019-05-05T14:48:18.312Z,11.57
2019-05-05T14:51:34.024Z,11.32
2019-05-05T14:54:47.415Z,11.15
2019-05-05T14:58:01.037Z,10.98
2019-05-05T15:01:14.725Z,10.80
2019-05-05T15:04:30.497Z,10.62
2019-05-05T15:07:54.267Z,10.60
2019-05-05T15:11:17.821Z,10.56
2019-05-05T15:14:31.757Z,10.54
2019-05-05T15:17:45.290Z,10.45
2019-05-05T15:20:58.997Z,10.21
2019-05-05T15:24:13.887Z,9.85
2019-05-05T15:27:27.680Z,9.64
2019-05-05T15:30:41.383Z,9.62
2019-05-05T15:33:55.186Z,9.53
2019-05-05T15:37:08.703Z,9.36
2019-05-05T15:40:22.426Z,9.40
2019-05-05T15:43:35.932Z,9.58
2019-05-05T15:46:49.522Z,9.86
2019-05-05T15:50:04.464Z,10.08
2019-05-05T15:53:18.344Z,10.56
2019-05-05T15:56:33.972Z,10.81
2019-05-05T15:59:47.692Z,11.39
2019-05-05T16:03:01.304Z,11.79
2019-05-05T16:06:15.193Z,11.77
2019-05-05T16:09:28.726Z,11.70
2019-05-05T16:12:44.792Z,11.65
2019-05-05T16:16:15.337Z,11.68
2019-05-05T16:19:37.161Z,11.62
2019-05-05T16:22:59.411Z,11.57
2019-05-05T16:26:13.891Z,11.37
2019-05-05T16:29:27.520Z,11.24
2019-05-05T16:32:41.195Z,11.20
2019-05-05T16:35:55.030Z,11.20
2019-05-05T16:39:08.730Z,11.10
2019-05-05T16:42:23.907Z,11.05
2019-05-05T16:45:37.699Z,10.90
2019-05-05T16:48:51.392Z,10.92
2019-05-05T16:52:11.411Z,10.82
2019-05-05T16:55:31.141Z,10.89
2019-05-05T16:58:45.169Z,10.78
2019-05-05T17:01:59.098Z,10.61
2019-05-05T17:05:13.696Z,10.56
2019-05-05T17:08:27.405Z,10.67
2019-05-05T17:11:44.913Z,10.57
2019-05-05T17:15:16.788Z,10.53
2019-05-05T17:18:44.935Z,10.57
2019-05-05T17:22:06.523Z,10.49
2019-05-05T17:25:20.029Z,10.55
2019-05-05T17:28:33.970Z,10.55
2019-05-05T17:31:47.451Z,10.64
2019-05-05T17:35:00.947Z,10.69
2019-05-05T17:38:15.497Z,10.71
2019-05-05T17:41:47.417Z,10.73
2019-05-05T17:45:14.123Z,10.84
2019-05-05T17:48:32.517Z,10.72
2019-05-05T17:51:50.000Z,10.61
2019-05-05T17:55:24.235Z,10.47
2019-05-05T17:58:37.780Z,10.39
2019-05-05T18:01:53.833Z,10.35
2019-05-05T18:05:07.309Z,10.28
2019-05-05T18:08:39.799Z,10.19
2019-05-05T18:12:13.804Z,10.04
2019-05-05T18:15:48.207Z,9.92
2019-05-05T18:19:01.026Z,9.72
2019-05-05T18:22:14.534Z,9.48
2019-05-05T18:25:28.426Z,9.08
2019-05-05T18:28:44.356Z,8.85
2019-05-05T18:31:57.972Z,8.78
2019-05-05T18:35:13.517Z,8.70
2019-05-05T18:38:27.552Z,8.62
2019-05-05T18:41:58.875Z,8.42
2019-05-05T18:45:13.666Z,8.23
2019-05-05T18:48:27.303Z,8.02
2019-05-05T18:51:41.011Z,7.86
2019-05-05T18:54:54.697Z,7.84
2019-05-05T18:58:08.220Z,7.82
2019-05-05T19:01:44.673Z,7.80
2019-05-05T19:05:12.014Z,7.74
2019-05-05T19:08:28.916Z,7.67
2019-05-05T19:11:43.643Z,7.63
2019-05-05T19:14:57.372Z,7.54
2019-05-05T19:18:10.970Z,7.51
2019-05-05T19:21:31.471Z,7.48
2019-05-05T19:24:45.166Z,7.41
2019-05-05T19:27:58.787Z,7.29
2019-05-05T19:31:13.986Z,7.28
2019-05-05T19:34:27.582Z,7.21
2019-05-05T19:37:41.279Z,7.24
2019-05-05T19:40:56.359Z,7.19
2019-05-05T19:44:10.275Z,7.18
2019-05-05T19:47:24.688Z,7.16
2019-05-05T19:50:44.588Z,7.08
2019-05-05T19:53:58.264Z,7.02
2019-05-05T19:57:14.293Z,7.04
2019-05-05T20:00:27.831Z,6.95
2019-05-05T20:03:41.498Z,6.94
2019-05-05T20:06:56.756Z,6.92
2019-05-05T20:10:10.544Z,6.87
2019-05-05T20:13:24.154Z,6.89
2019-05-05T20:17:04.293Z,6.85
2019-05-05T20:20:18.521Z,6.87
2019-05-05T20:23:33.993Z,6.83
2019-05-05T20:26:47.429Z,6.84
2019-05-05T20:30:01.295Z,6.84
2019-05-05T20:33:24.208Z,6.82
2019-05-05T20:36:57.154Z,6.75
2019-05-05T20:40:14.567Z,6.68
2019-05-05T20:43:29.159Z,6.54
2019-05-05T20:46:43.939Z,6.41
2019-05-05T20:49:58.044Z,6.22
2019-05-05T20:53:13.516Z,6.09
2019-05-05T20:56:26.934Z,6.03
2019-05-05T20:59:40.708Z,5.92
2019-05-05T21:02:54.208Z,5.88
2019-05-05T21:06:07.685Z,5.78
2019-05-05T21:09:21.731Z,5.66
2019-05-05T21:16:35.746Z,5.51
2019-05-05T21:19:49.267Z,5.35
2019-05-05T21:23:10.758Z,5.33
2019-05-05T21:26:47.158Z,5.26
2019-05-05T21:30:00.764Z,5.19
2019-05-05T21:33:14.681Z,5.09
2019-05-05T21:36:28.162Z,5.05
2019-05-05T21:39:41.759Z,5.07
2019-05-05T21:42:55.350Z,5.05
2019-05-05T21:46:09.169Z,5.07
2019-05-05T21:49:24.217Z,5.07
2019-05-05T21:52:45.920Z,5.09
2019-05-05T21:56:28.027Z,5.06
2019-05-05T21:59:54.410Z,5.09
2019-05-05T22:02:57.816Z,5.14
2019-05-05T22:06:11.408Z,5.14
2019-05-05T22:09:24.893Z,5.21
2019-05-05T22:12:38.917Z,5.21
2019-05-05T22:15:54.446Z,5.24
2019-05-05T22:19:08.025Z,5.31
2019-05-05T22:22:23.608Z,5.28
2019-05-05T22:25:37.096Z,5.36
2019-05-05T22:28:50.595Z,5.40
2019-05-05T22:32:06.212Z,5.41
2019-05-05T22:35:19.778Z,5.45
2019-05-05T22:38:33.961Z,5.45
2019-05-05T22:41:47.858Z,5.49
2019-05-05T22:45:01.600Z,5.53
2019-05-05T22:48:15.518Z,5.44
2019-05-05T22:51:29.097Z,5.46
2019-05-05T22:54:44.424Z,5.46
2019-05-05T22:57:58.024Z,5.48
2019-05-05T23:01:13.608Z,5.45
2019-05-05T23:04:34.960Z,5.41
2019-05-05T23:07:48.971Z,5.44
2019-05-05T23:11:04.039Z,5.48
2019-05-05T23:14:27.260Z,5.52
2019-05-05T23:17:54.332Z,5.53
2019-05-05T23:21:34.269Z,5.51
2019-05-05T23:24:54.207Z,5.53
2019-05-05T23:28:08.061Z,5.51
2019-05-05T23:31:23.973Z,5.59
2019-05-05T23:34:37.101Z,5.60
2019-05-05T23:37:50.700Z,5.64
2019-05-05T23:41:04.313Z,5.69
2019-05-05T23:44:18.069Z,5.70
2019-05-05T23:47:31.677Z,5.65
2019-05-05T23:50:45.509Z,5.67
2019-05-05T23:53:59.000Z,5.64
2019-05-05T23:57:13.747Z,5.61
